Bull Shoals, AR

11:09 AM CST on February 14, 2016 (GMT -0600)
High Ridge | | Change Station
CLOSE
Current Station
Personal Weather Station
Location: Midway-Lakeview, AR
Elevation: 900 ft
Nearby Weather Stations
Active Advisory: Winter Weather Advisory

Elev 900 ft 36.39 °N, 92.49 °W | Updated 51 seconds ago

Overcast
Overcast
30.4 °F
Feels Like 23 °F
N
8.4
Wind Variable Wind from SE
Gusts 8.4 mph

Today
High -- | Low -- °F
--% Chance of Precip.
Yesterday
High -- | Low -- °F
Precip. -- in
Pressure 30.07 in
Visibility 9.0 miles
Clouds Overcast 2400 ft
Windchill 23 °F
Dew Point 9 °F
Humidity 40%
Rainfall 0.00 in
Snow Depth Not available.
6:59 AM 5:49 PM
Waxing Crescent, 43% visible
METAR KBPK 141653Z AUTO 12006KT 9SM OVC024 M02/M08 A3004 RMK AO2 SLP181 T10171083
Pressure 30.07 in
Visibility 9.0 miles
Clouds Overcast 2400 ft
Windchill 23 °F
Dew Point 9 °F
Humidity 40%
Rainfall 0.00 in
Snow Depth Not available.
6:59 AM 5:49 PM
Waxing Crescent, 43% visible
METAR KBPK 141653Z AUTO 12006KT 9SM OVC024 M02/M08 A3004 RMK AO2 SLP181 T10171083

10-Day Weather Forecast

Almanac

Astronomy

Feb. 14, 2016 Rise Set
Actual Time
Civil Twilight
Nautical Twilight
Astronomical Twilight
Moon
Length of Visible Light
Length of Day
Tomorrow will be .
, % of the Moon is Illuminated

Today's Extremes

State Highs State Lows

Community

WunderPhotos

Upload Photos

1,892,849 photos uploaded!

WunderBlog® & News

Nearby

Air Quality

  Air Quality AQ Index Pollutant
Not available.

Snow Depth

Station Depth Elevation

Earthquake Activity

City Distance Mag. Time & Date
Minimum magnitude displayed is 2.5.

Coastal Water Temperatures

Place Temperature

Stations

Nearby Weather Stations

Station Location Temp. Windchill Dew Point Humidity Wind Precip. Elev Updated Type
                   

Watches & Warnings

Winter Weather Advisory
Issued: 6:28 AM CST Feb. 14, 2016 – National Weather Service

... Winter Weather Advisory remains in effect until noon CST
today...

* timing... scattered areas of light freezing rain and sleet will
continue to affect northern Arkansas through late morning.

* Areas affected... the advisory includes the northern two rows
of counties in Arkansas... or from Jasper... Mountain view... and
Cave City northward.

* Main impact... light freezing rain will create hazardous driving
conditions on roadways... especially overpasses exposed to the
cold air.

Precautionary/preparedness actions...

A Winter Weather Advisory is issued when light wintry
precipitation is expected to cause travel difficulties. Be
prepared for icy roads... and use caution while driving.



55